sensor_id;sensor_type;location;lat;lon;timestamp;pressure;altitude;pressure_sealevel;temperature;humidity
55315;BME280;41619;42.816;23.226;2022-09-30T00:00:05;95185.75;;;13.16;83.70
55315;BME280;41619;42.816;23.226;2022-09-30T00:02:31;95189.28;;;13.13;84.11
55315;BME280;41619;42.816;23.226;2022-09-30T00:04:56;95190.06;;;13.10;83.63
55315;BME280;41619;42.816;23.226;2022-09-30T00:07:22;95186.13;;;13.07;83.81
55315;BME280;41619;42.816;23.226;2022-09-30T00:09:48;95187.31;;;13.02;84.37
55315;BME280;41619;42.816;23.226;2022-09-30T00:12:15;95188.44;;;12.98;84.16
55315;BME280;41619;42.816;23.226;2022-09-30T00:14:40;95189.22;;;12.95;83.82
55315;BME280;41619;42.816;23.226;2022-09-30T00:17:06;95196.66;;;12.91;84.00
55315;BME280;41619;42.816;23.226;2022-09-30T00:19:31;95191.16;;;12.87;84.61
55315;BME280;41619;42.816;23.226;2022-09-30T00:21:56;95199.41;;;12.84;84.34
55315;BME280;41619;42.816;23.226;2022-09-30T00:24:22;95191.91;;;12.81;84.40
55315;BME280;41619;42.816;23.226;2022-09-30T00:26:47;95207.19;;;12.78;84.47
55315;BME280;41619;42.816;23.226;2022-09-30T00:29:12;95197.78;;;12.76;84.14
55315;BME280;41619;42.816;23.226;2022-09-30T00:31:38;95198.16;;;12.74;84.44
55315;BME280;41619;42.816;23.226;2022-09-30T00:34:04;95186.00;;;12.71;84.37
55315;BME280;41619;42.816;23.226;2022-09-30T00:36:47;95194.22;;;12.68;84.76
55315;BME280;41619;42.816;23.226;2022-09-30T00:39:19;95195.78;;;12.65;84.47
55315;BME280;41619;42.816;23.226;2022-09-30T00:41:47;95185.94;;;12.61;84.38
55315;BME280;41619;42.816;23.226;2022-09-30T00:44:51;95189.81;;;12.53;84.29
55315;BME280;41619;42.816;23.226;2022-09-30T00:52:38;95181.09;;;12.36;84.04
55315;BME280;41619;42.816;23.226;2022-09-30T00:55:06;95175.59;;;12.33;84.42
55315;BME280;41619;42.816;23.226;2022-09-30T00:57:35;95176.75;;;12.28;84.37
55315;BME280;41619;42.816;23.226;2022-09-30T01:00:01;95179.06;;;12.26;83.98
55315;BME280;41619;42.816;23.226;2022-09-30T01:02:27;95181.78;;;12.23;84.21
55315;BME280;41619;42.816;23.226;2022-09-30T01:04:52;95173.16;;;12.21;84.10
55315;BME280;41619;42.816;23.226;2022-09-30T01:07:19;95174.72;;;12.18;84.11
55315;BME280;41619;42.816;23.226;2022-09-30T01:09:46;95178.59;;;12.13;84.50
55315;BME280;41619;42.816;23.226;2022-09-30T01:12:18;95167.97;;;12.08;84.15
55315;BME280;41619;42.816;23.226;2022-09-30T01:14:46;95180.09;;;12.07;84.27
55315;BME280;41619;42.816;23.226;2022-09-30T01:20:05;95178.50;;;12.03;84.36
55315;BME280;41619;42.816;23.226;2022-09-30T01:41:52;95197.47;;;11.74;84.07
55315;BME280;41619;42.816;23.226;2022-09-30T01:44:34;95206.03;;;11.69;84.02
55315;BME280;41619;42.816;23.226;2022-09-30T01:47:15;95209.94;;;11.68;84.03
55315;BME280;41619;42.816;23.226;2022-09-30T01:49:47;95209.53;;;11.70;84.11
55315;BME280;41619;42.816;23.226;2022-09-30T01:55:27;95217.53;;;11.82;84.18
55315;BME280;41619;42.816;23.226;2022-09-30T01:58:00;95215.59;;;11.86;84.12
55315;BME280;41619;42.816;23.226;2022-09-30T02:00:31;95215.28;;;11.91;84.00
55315;BME280;41619;42.816;23.226;2022-09-30T02:03:05;95220.41;;;11.96;84.48
55315;BME280;41619;42.816;23.226;2022-09-30T02:05:49;95219.25;;;12.01;84.39
55315;BME280;41619;42.816;23.226;2022-09-30T02:08:25;95221.63;;;12.06;84.45
55315;BME280;41619;42.816;23.226;2022-09-30T02:10:57;95218.94;;;12.09;84.21
55315;BME280;41619;42.816;23.226;2022-09-30T02:13:38;95227.19;;;12.13;84.40
55315;BME280;41619;42.816;23.226;2022-09-30T02:16:09;95221.72;;;12.17;84.42
55315;BME280;41619;42.816;23.226;2022-09-30T02:18:46;95225.28;;;12.21;84.39
55315;BME280;41619;42.816;23.226;2022-09-30T02:21:21;95221.38;;;12.25;84.53
55315;BME280;41619;42.816;23.226;2022-09-30T02:23:50;95220.25;;;12.30;84.56
55315;BME280;41619;42.816;23.226;2022-09-30T02:26:21;95216.38;;;12.34;84.48
55315;BME280;41619;42.816;23.226;2022-09-30T02:29:03;95219.13;;;12.38;84.18
55315;BME280;41619;42.816;23.226;2022-09-30T02:31:33;95214.84;;;12.40;84.29
55315;BME280;41619;42.816;23.226;2022-09-30T02:34:05;95219.56;;;12.43;84.50
55315;BME280;41619;42.816;23.226;2022-09-30T02:36:51;95219.94;;;12.46;84.75
55315;BME280;41619;42.816;23.226;2022-09-30T02:39:26;95220.00;;;12.53;84.40
55315;BME280;41619;42.816;23.226;2022-09-30T02:41:58;95226.31;;;12.57;84.41
55315;BME280;41619;42.816;23.226;2022-09-30T02:44:25;95214.53;;;12.56;84.52
55315;BME280;41619;42.816;23.226;2022-09-30T02:47:25;95218.47;;;12.59;84.55
55315;BME280;41619;42.816;23.226;2022-09-30T02:50:03;95221.63;;;12.61;84.71
55315;BME280;41619;42.816;23.226;2022-09-30T02:52:54;95220.06;;;12.63;84.66
55315;BME280;41619;42.816;23.226;2022-09-30T02:58:11;95231.88;;;12.67;85.06
55315;BME280;41619;42.816;23.226;2022-09-30T03:00:38;95232.66;;;12.68;84.82
55315;BME280;41619;42.816;23.226;2022-09-30T03:03:08;95251.47;;;12.66;85.09
55315;BME280;41619;42.816;23.226;2022-09-30T03:05:36;95232.22;;;12.62;85.05
55315;BME280;41619;42.816;23.226;2022-09-30T03:08:02;95233.38;;;12.61;85.21
55315;BME280;41619;42.816;23.226;2022-09-30T03:10:28;95242.38;;;12.58;85.09
55315;BME280;41619;42.816;23.226;2022-09-30T03:13:54;95233.34;;;12.54;85.64
55315;BME280;41619;42.816;23.226;2022-09-30T03:16:10;95230.59;;;12.51;85.50
55315;BME280;41619;42.816;23.226;2022-09-30T03:29:50;95221.06;;;12.30;86.08
55315;BME280;41619;42.816;23.226;2022-09-30T03:35:12;95235.47;;;12.20;86.24
55315;BME280;41619;42.816;23.226;2022-09-30T03:38:01;95239.34;;;12.16;85.95
55315;BME280;41619;42.816;23.226;2022-09-30T03:40:42;95243.69;;;12.17;86.04
55315;BME280;41619;42.816;23.226;2022-09-30T03:48:48;95259.75;;;12.18;85.74
55315;BME280;41619;42.816;23.226;2022-09-30T03:51:15;95266.81;;;12.19;85.86
55315;BME280;41619;42.816;23.226;2022-09-30T03:53:42;95252.72;;;12.21;86.21
55315;BME280;41619;42.816;23.226;2022-09-30T03:56:08;95254.69;;;12.20;85.86
55315;BME280;41619;42.816;23.226;2022-09-30T03:58:33;95251.94;;;12.20;86.32
55315;BME280;41619;42.816;23.226;2022-09-30T04:01:01;95262.53;;;12.22;85.74
55315;BME280;41619;42.816;23.226;2022-09-30T04:03:26;95266.06;;;12.22;86.16
55315;BME280;41619;42.816;23.226;2022-09-30T04:05:52;95270.78;;;12.25;86.29
55315;BME280;41619;42.816;23.226;2022-09-30T04:08:18;95272.34;;;12.26;85.97
55315;BME280;41619;42.816;23.226;2022-09-30T04:10:44;95281.38;;;12.27;86.16
55315;BME280;41619;42.816;23.226;2022-09-30T04:13:10;95277.50;;;12.28;86.36
55315;BME280;41619;42.816;23.226;2022-09-30T04:15:35;95275.53;;;12.28;86.29
55315;BME280;41619;42.816;23.226;2022-09-30T04:18:02;95263.38;;;12.29;85.94
55315;BME280;41619;42.816;23.226;2022-09-30T04:20:28;95265.75;;;12.31;86.19
55315;BME280;41619;42.816;23.226;2022-09-30T04:22:58;95256.31;;;12.28;86.08
55315;BME280;41619;42.816;23.226;2022-09-30T04:25:26;95264.50;;;12.25;85.86
55315;BME280;41619;42.816;23.226;2022-09-30T04:27:51;95253.47;;;12.18;85.93
55315;BME280;41619;42.816;23.226;2022-09-30T04:30:17;95265.97;;;12.11;85.94
55315;BME280;41619;42.816;23.226;2022-09-30T04:32:43;95265.13;;;12.07;85.75
55315;BME280;41619;42.816;23.226;2022-09-30T04:35:10;95270.19;;;12.02;85.84
55315;BME280;41619;42.816;23.226;2022-09-30T04:37:40;95278.41;;;11.98;85.53
55315;BME280;41619;42.816;23.226;2022-09-30T04:40:06;95277.56;;;11.91;85.70
55315;BME280;41619;42.816;23.226;2022-09-30T04:42:33;95281.00;;;11.84;85.74
55315;BME280;41619;42.816;23.226;2022-09-30T04:44:59;95286.47;;;11.84;85.78
55315;BME280;41619;42.816;23.226;2022-09-30T04:47:24;95299.00;;;11.81;85.69
55315;BME280;41619;42.816;23.226;2022-09-30T04:49:49;95300.97;;;11.81;85.50
55315;BME280;41619;42.816;23.226;2022-09-30T04:52:15;95309.56;;;11.79;85.55
55315;BME280;41619;42.816;23.226;2022-09-30T04:54:40;95313.81;;;11.77;85.56
55315;BME280;41619;42.816;23.226;2022-09-30T04:57:05;95324.38;;;11.75;85.32
55315;BME280;41619;42.816;23.226;2022-09-30T04:59:31;95319.69;;;11.75;85.38
55315;BME280;41619;42.816;23.226;2022-09-30T05:01:57;95305.56;;;11.73;85.22
55315;BME280;41619;42.816;23.226;2022-09-30T05:04:23;95310.63;;;11.71;85.35
55315;BME280;41619;42.816;23.226;2022-09-30T05:06:49;95314.09;;;11.68;85.55
55315;BME280;41619;42.816;23.226;2022-09-30T05:09:14;95310.16;;;11.66;85.35
55315;BME280;41619;42.816;23.226;2022-09-30T05:11:39;95291.75;;;11.66;85.45
55315;BME280;41619;42.816;23.226;2022-09-30T05:14:06;95298.06;;;11.70;85.03
55315;BME280;41619;42.816;23.226;2022-09-30T05:16:33;95315.34;;;11.74;85.09
55315;BME280;41619;42.816;23.226;2022-09-30T05:18:58;95324.06;;;11.80;84.85
55315;BME280;41619;42.816;23.226;2022-09-30T05:21:24;95318.22;;;11.85;85.11
55315;BME280;41619;42.816;23.226;2022-09-30T05:23:49;95314.72;;;11.88;84.98
55315;BME280;41619;42.816;23.226;2022-09-30T05:26:15;95320.66;;;11.90;84.90
55315;BME280;41619;42.816;23.226;2022-09-30T05:28:41;95312.41;;;11.90;84.72
55315;BME280;41619;42.816;23.226;2022-09-30T05:31:06;95314.44;;;11.97;84.65
55315;BME280;41619;42.816;23.226;2022-09-30T05:33:32;95325.06;;;12.02;84.41
55315;BME280;41619;42.816;23.226;2022-09-30T05:36:00;95326.66;;;12.06;84.52
55315;BME280;41619;42.816;23.226;2022-09-30T05:38:26;95340.78;;;12.08;84.65
55315;BME280;41619;42.816;23.226;2022-09-30T05:40:52;95347.03;;;12.05;84.59
55315;BME280;41619;42.816;23.226;2022-09-30T05:43:18;95356.38;;;12.01;84.62
55315;BME280;41619;42.816;23.226;2022-09-30T05:45:59;95361.88;;;12.01;84.21
55315;BME280;41619;42.816;23.226;2022-09-30T05:48:25;95355.22;;;12.02;84.48
55315;BME280;41619;42.816;23.226;2022-09-30T05:50:58;95358.75;;;12.02;84.26
55315;BME280;41619;42.816;23.226;2022-09-30T05:53:26;95360.72;;;12.02;84.35
55315;BME280;41619;42.816;23.226;2022-09-30T05:55:51;95357.25;;;12.08;84.71
55315;BME280;41619;42.816;23.226;2022-09-30T05:58:18;95359.97;;;12.08;84.62
55315;BME280;41619;42.816;23.226;2022-09-30T06:00:44;95357.72;;;12.14;84.59
55315;BME280;41619;42.816;23.226;2022-09-30T06:03:11;95358.56;;;12.22;84.56
55315;BME280;41619;42.816;23.226;2022-09-30T06:05:36;95372.75;;;12.31;84.81
55315;BME280;41619;42.816;23.226;2022-09-30T06:08:03;95368.84;;;12.32;84.86
55315;BME280;41619;42.816;23.226;2022-09-30T06:10:29;95374.00;;;12.40;84.78
55315;BME280;41619;42.816;23.226;2022-09-30T06:12:54;95376.78;;;12.44;84.46
55315;BME280;41619;42.816;23.226;2022-09-30T06:15:20;95382.34;;;12.51;84.66
55315;BME280;41619;42.816;23.226;2022-09-30T06:17:51;95387.50;;;12.60;84.60
55315;BME280;41619;42.816;23.226;2022-09-30T06:20:17;95381.34;;;12.73;84.78
55315;BME280;41619;42.816;23.226;2022-09-30T06:22:42;95377.88;;;12.80;84.74
55315;BME280;41619;42.816;23.226;2022-09-30T06:25:08;95386.16;;;12.84;84.63
55315;BME280;41619;42.816;23.226;2022-09-30T06:27:35;95386.97;;;12.91;84.68
55315;BME280;41619;42.816;23.226;2022-09-30T06:30:03;95390.16;;;13.00;84.44
55315;BME280;41619;42.816;23.226;2022-09-30T06:32:29;95395.72;;;13.08;84.32
55315;BME280;41619;42.816;23.226;2022-09-30T06:34:54;95402.41;;;13.10;84.54
55315;BME280;41619;42.816;23.226;2022-09-30T06:37:21;95407.16;;;13.17;84.62
55315;BME280;41619;42.816;23.226;2022-09-30T06:39:47;95407.66;;;13.29;84.42
55315;BME280;41619;42.816;23.226;2022-09-30T06:42:13;95420.31;;;13.41;84.22
55315;BME280;41619;42.816;23.226;2022-09-30T06:44:38;95411.72;;;13.50;84.74
55315;BME280;41619;42.816;23.226;2022-09-30T06:47:03;95420.81;;;13.57;84.62
55315;BME280;41619;42.816;23.226;2022-09-30T06:49:29;95426.72;;;13.63;84.41
55315;BME280;41619;42.816;23.226;2022-09-30T06:51:55;95431.84;;;13.68;84.26
55315;BME280;41619;42.816;23.226;2022-09-30T06:54:20;95430.31;;;13.78;84.32
55315;BME280;41619;42.816;23.226;2022-09-30T06:56:47;95429.19;;;13.93;84.48
55315;BME280;41619;42.816;23.226;2022-09-30T06:59:12;95429.66;;;14.13;84.44
55315;BME280;41619;42.816;23.226;2022-09-30T07:01:42;95419.47;;;14.28;83.86
55315;BME280;41619;42.816;23.226;2022-09-30T07:04:11;95429.34;;;14.39;83.33
55315;BME280;41619;42.816;23.226;2022-09-30T07:06:37;95425.84;;;14.46;83.18
55315;BME280;41619;42.816;23.226;2022-09-30T07:09:04;95429.81;;;14.52;82.72
55315;BME280;41619;42.816;23.226;2022-09-30T07:11:30;95432.53;;;14.48;82.56
55315;BME280;41619;42.816;23.226;2022-09-30T07:13:55;95437.28;;;14.83;82.88
55315;BME280;41619;42.816;23.226;2022-09-30T07:16:22;95441.97;;;15.68;82.38
55315;BME280;41619;42.816;23.226;2022-09-30T07:18:50;95444.53;;;16.22;80.23
55315;BME280;41619;42.816;23.226;2022-09-30T07:21:15;95445.31;;;16.26;78.82
55315;BME280;41619;42.816;23.226;2022-09-30T07:23:43;95437.22;;;16.60;78.56
55315;BME280;41619;42.816;23.226;2022-09-30T07:26:16;95443.34;;;17.41;77.66
55315;BME280;41619;42.816;23.226;2022-09-30T07:28:42;95442.69;;;17.71;76.03
55315;BME280;41619;42.816;23.226;2022-09-30T07:31:13;95439.09;;;17.29;75.03
55315;BME280;41619;42.816;23.226;2022-09-30T07:33:41;95438.22;;;16.94;75.55
55315;BME280;41619;42.816;23.226;2022-09-30T07:36:07;95452.75;;;17.02;76.28
55315;BME280;41619;42.816;23.226;2022-09-30T07:38:35;95441.47;;;18.09;76.56
55315;BME280;41619;42.816;23.226;2022-09-30T07:41:13;95446.63;;;18.95;73.19
55315;BME280;41619;42.816;23.226;2022-09-30T07:43:41;95458.03;;;18.74;72.10
55315;BME280;41619;42.816;23.226;2022-09-30T07:46:12;95447.69;;;19.28;72.46
55315;BME280;41619;42.816;23.226;2022-09-30T07:48:39;95456.88;;;19.49;71.45
55315;BME280;41619;42.816;23.226;2022-09-30T07:51:21;95466.69;;;19.57;70.59
55315;BME280;41619;42.816;23.226;2022-09-30T07:53:54;95468.88;;;19.42;70.53
55315;BME280;41619;42.816;23.226;2022-09-30T07:56:21;95467.69;;;19.43;70.83
55315;BME280;41619;42.816;23.226;2022-09-30T07:58:47;95465.50;;;20.41;70.21
55315;BME280;41619;42.816;23.226;2022-09-30T08:01:14;95472.94;;;22.43;67.06
55315;BME280;41619;42.816;23.226;2022-09-30T08:03:42;95476.44;;;23.26;63.68
55315;BME280;41619;42.816;23.226;2022-09-30T08:06:16;95478.53;;;23.35;62.08
55315;BME280;41619;42.816;23.226;2022-09-30T08:08:43;95482.00;;;23.65;62.54
55315;BME280;41619;42.816;23.226;2022-09-30T08:11:10;95467.00;;;25.64;59.18
55315;BME280;41619;42.816;23.226;2022-09-30T08:13:36;95475.09;;;27.51;55.40
55315;BME280;41619;42.816;23.226;2022-09-30T08:16:02;95466.72;;;29.65;51.55
55315;BME280;41619;42.816;23.226;2022-09-30T08:18:28;95471.19;;;30.99;47.59
55315;BME280;41619;42.816;23.226;2022-09-30T08:20:54;95477.00;;;31.79;46.61
55315;BME280;41619;42.816;23.226;2022-09-30T08:23:19;95469.53;;;32.83;45.19
55315;BME280;41619;42.816;23.226;2022-09-30T08:25:45;95474.75;;;33.91;42.89
55315;BME280;41619;42.816;23.226;2022-09-30T08:28:12;95480.34;;;34.19;41.72
55315;BME280;41619;42.816;23.226;2022-09-30T08:30:37;95476.78;;;34.71;40.94
55315;BME280;41619;42.816;23.226;2022-09-30T08:33:03;95479.53;;;35.65;39.30
55315;BME280;41619;42.816;23.226;2022-09-30T08:35:29;95478.28;;;36.15;36.38
55315;BME280;41619;42.816;23.226;2022-09-30T08:37:55;95480.41;;;36.57;36.33
55315;BME280;41619;42.816;23.226;2022-09-30T08:40:23;95479.59;;;37.38;35.02
55315;BME280;41619;42.816;23.226;2022-09-30T08:43:08;95463.94;;;37.71;33.47
55315;BME280;41619;42.816;23.226;2022-09-30T08:53:29;95471.19;;;38.57;30.58
55315;BME280;41619;42.816;23.226;2022-09-30T08:55:56;95472.44;;;38.22;30.45
55315;BME280;41619;42.816;23.226;2022-09-30T08:58:41;95466.59;;;38.54;30.36
55315;BME280;41619;42.816;23.226;2022-09-30T09:01:19;95462.75;;;38.64;28.77
55315;BME280;41619;42.816;23.226;2022-09-30T09:03:48;95465.34;;;38.89;28.70
55315;BME280;41619;42.816;23.226;2022-09-30T09:11:40;95473.75;;;38.34;27.13
55315;BME280;41619;42.816;23.226;2022-09-30T09:14:50;95473.63;;;36.60;28.59
55315;BME280;41619;42.816;23.226;2022-09-30T09:20:10;95471.28;;;34.26;31.16
55315;BME280;41619;42.816;23.226;2022-09-30T09:22:37;95478.03;;;34.12;32.53
55315;BME280;41619;42.816;23.226;2022-09-30T09:25:03;95470.22;;;34.93;31.72
55315;BME280;41619;42.816;23.226;2022-09-30T09:30:17;95465.47;;;37.58;27.78
55315;BME280;41619;42.816;23.226;2022-09-30T09:32:57;95470.56;;;38.51;26.70
55315;BME280;41619;42.816;23.226;2022-09-30T09:38:34;95464.63;;;39.85;24.55
55315;BME280;41619;42.816;23.226;2022-09-30T09:46:52;95468.69;;;40.39;24.21
55315;BME280;41619;42.816;23.226;2022-09-30T09:54:36;95460.19;;;40.62;22.18
55315;BME280;41619;42.816;23.226;2022-09-30T09:57:10;95454.75;;;40.79;21.61
55315;BME280;41619;42.816;23.226;2022-09-30T09:59:37;95455.28;;;40.13;21.55
55315;BME280;41619;42.816;23.226;2022-09-30T10:02:29;95464.19;;;40.30;21.53
55315;BME280;41619;42.816;23.226;2022-09-30T10:04:55;95461.72;;;40.91;21.34
55315;BME280;41619;42.816;23.226;2022-09-30T10:07:31;95467.41;;;41.35;20.93
55315;BME280;41619;42.816;23.226;2022-09-30T10:10:23;95462.13;;;41.03;20.76
55315;BME280;41619;42.816;23.226;2022-09-30T10:12:49;95441.22;;;39.73;21.79
55315;BME280;41619;42.816;23.226;2022-09-30T10:15:23;95453.28;;;38.69;22.22
55315;BME280;41619;42.816;23.226;2022-09-30T10:17:57;95462.38;;;38.81;22.46
55315;BME280;41619;42.816;23.226;2022-09-30T10:20:25;95444.91;;;39.19;22.40
55315;BME280;41619;42.816;23.226;2022-09-30T10:23:07;95437.81;;;38.86;20.34
55315;BME280;41619;42.816;23.226;2022-09-30T10:25:32;95441.53;;;38.33;20.81
55315;BME280;41619;42.816;23.226;2022-09-30T10:28:01;95429.53;;;37.95;20.59
55315;BME280;41619;42.816;23.226;2022-09-30T10:33:12;95445.31;;;37.19;20.91
55315;BME280;41619;42.816;23.226;2022-09-30T10:35:54;95430.72;;;36.90;20.88
55315;BME280;41619;42.816;23.226;2022-09-30T10:38:22;95428.19;;;36.68;20.69
55315;BME280;41619;42.816;23.226;2022-09-30T10:40:49;95430.75;;;36.04;21.20
55315;BME280;41619;42.816;23.226;2022-09-30T10:43:38;95428.69;;;34.79;22.33
55315;BME280;41619;42.816;23.226;2022-09-30T10:46:07;95421.56;;;33.92;23.18
55315;BME280;41619;42.816;23.226;2022-09-30T10:48:35;95424.44;;;33.08;23.51
55315;BME280;41619;42.816;23.226;2022-09-30T10:51:01;95420.22;;;32.36;24.54
55315;BME280;41619;42.816;23.226;2022-09-30T10:53:31;95416.41;;;31.97;25.15
55315;BME280;41619;42.816;23.226;2022-09-30T10:55:57;95421.16;;;31.74;24.90
55315;BME280;41619;42.816;23.226;2022-09-30T10:58:42;95430.19;;;31.41;25.02
55315;BME280;41619;42.816;23.226;2022-09-30T11:04:10;95430.47;;;31.11;26.25
55315;BME280;41619;42.816;23.226;2022-09-30T11:06:38;95436.97;;;30.91;25.47
55315;BME280;41619;42.816;23.226;2022-09-30T11:09:13;95436.00;;;30.28;26.40
55315;BME280;41619;42.816;23.226;2022-09-30T11:11:53;95430.28;;;29.81;26.70
55315;BME280;41619;42.816;23.226;2022-09-30T11:14:48;95426.38;;;29.59;27.30
55315;BME280;41619;42.816;23.226;2022-09-30T11:17:30;95434.22;;;29.19;28.16
55315;BME280;41619;42.816;23.226;2022-09-30T11:25:15;95435.19;;;28.72;29.25
55315;BME280;41619;42.816;23.226;2022-09-30T11:28:31;95427.97;;;28.42;29.09
55315;BME280;41619;42.816;23.226;2022-09-30T11:30:51;95427.84;;;27.97;30.13
55315;BME280;41619;42.816;23.226;2022-09-30T11:33:44;95427.25;;;27.69;30.09
55315;BME280;41619;42.816;23.226;2022-09-30T11:36:37;95433.06;;;27.66;30.78
55315;BME280;41619;42.816;23.226;2022-09-30T11:41:42;95432.78;;;27.22;31.68
55315;BME280;41619;42.816;23.226;2022-09-30T11:44:28;95433.13;;;27.48;31.52
55315;BME280;41619;42.816;23.226;2022-09-30T11:58:02;95432.34;;;28.28;30.15
55315;BME280;41619;42.816;23.226;2022-09-30T12:00:29;95436.13;;;28.40;29.80
55315;BME280;41619;42.816;23.226;2022-09-30T12:03:00;95435.53;;;28.35;30.26
55315;BME280;41619;42.816;23.226;2022-09-30T12:05:51;95439.81;;;28.31;30.53
55315;BME280;41619;42.816;23.226;2022-09-30T12:08:27;95443.13;;;28.20;30.64
55315;BME280;41619;42.816;23.226;2022-09-30T12:10:57;95438.84;;;28.10;31.10
55315;BME280;41619;42.816;23.226;2022-09-30T12:13:26;95444.06;;;27.79;30.80
55315;BME280;41619;42.816;23.226;2022-09-30T12:15:55;95446.31;;;27.32;31.42
55315;BME280;41619;42.816;23.226;2022-09-30T12:18:25;95444.56;;;26.93;31.46
55315;BME280;41619;42.816;23.226;2022-09-30T12:20:59;95446.69;;;26.65;32.61
55315;BME280;41619;42.816;23.226;2022-09-30T12:23:37;95440.63;;;26.48;32.64
55315;BME280;41619;42.816;23.226;2022-09-30T12:26:06;95439.34;;;26.31;32.63
55315;BME280;41619;42.816;23.226;2022-09-30T12:28:35;95437.94;;;26.17;32.82
55315;BME280;41619;42.816;23.226;2022-09-30T12:46:12;95448.72;;;26.27;33.00
55315;BME280;41619;42.816;23.226;2022-09-30T12:49:13;95441.09;;;26.37;32.48
55315;BME280;41619;42.816;23.226;2022-09-30T12:51:34;95441.41;;;26.48;32.91
55315;BME280;41619;42.816;23.226;2022-09-30T12:54:15;95447.47;;;26.65;33.46
55315;BME280;41619;42.816;23.226;2022-09-30T12:56:43;95443.22;;;26.79;32.49
55315;BME280;41619;42.816;23.226;2022-09-30T12:59:12;95453.00;;;26.93;32.43
55315;BME280;41619;42.816;23.226;2022-09-30T13:01:39;95454.84;;;26.96;32.59
55315;BME280;41619;42.816;23.226;2022-09-30T13:11:44;95438.00;;;27.05;32.13
55315;BME280;41619;42.816;23.226;2022-09-30T13:25:13;95453.97;;;26.80;31.84
55315;BME280;41619;42.816;23.226;2022-09-30T13:27:43;95445.69;;;26.86;33.12
55315;BME280;41619;42.816;23.226;2022-09-30T13:32:38;95455.22;;;26.79;32.75
55315;BME280;41619;42.816;23.226;2022-09-30T13:35:35;95455.22;;;26.70;33.36
55315;BME280;41619;42.816;23.226;2022-09-30T13:38:35;95459.00;;;26.67;32.96
55315;BME280;41619;42.816;23.226;2022-09-30T13:41:13;95455.41;;;26.58;33.17
55315;BME280;41619;42.816;23.226;2022-09-30T13:43:45;95449.34;;;26.50;33.23
55315;BME280;41619;42.816;23.226;2022-09-30T13:48:47;95450.28;;;26.38;33.12
55315;BME280;41619;42.816;23.226;2022-09-30T13:51:15;95461.34;;;26.23;33.83
55315;BME280;41619;42.816;23.226;2022-09-30T13:53:48;95452.78;;;26.08;34.25
55315;BME280;41619;42.816;23.226;2022-09-30T13:56:21;95469.88;;;26.01;34.85
55315;BME280;41619;42.816;23.226;2022-09-30T14:09:39;95472.66;;;25.83;34.37
55315;BME280;41619;42.816;23.226;2022-09-30T14:15:40;95485.66;;;25.58;34.14
55315;BME280;41619;42.816;23.226;2022-09-30T14:24:22;95481.94;;;25.21;34.88
55315;BME280;41619;42.816;23.226;2022-09-30T14:32:18;95489.22;;;24.88;36.34
55315;BME280;41619;42.816;23.226;2022-09-30T14:34:45;95496.94;;;24.74;35.62
55315;BME280;41619;42.816;23.226;2022-09-30T14:37:20;95497.63;;;24.66;35.47
55315;BME280;41619;42.816;23.226;2022-09-30T14:39:46;95492.00;;;24.57;35.83
55315;BME280;41619;42.816;23.226;2022-09-30T14:42:21;95497.84;;;24.50;36.08
55315;BME280;41619;42.816;23.226;2022-09-30T14:44:49;95496.53;;;24.41;36.02
55315;BME280;41619;42.816;23.226;2022-09-30T14:47:16;95499.16;;;24.36;36.28
55315;BME280;41619;42.816;23.226;2022-09-30T14:49:42;95504.53;;;24.30;36.64
55315;BME280;41619;42.816;23.226;2022-09-30T14:52:40;95508.78;;;24.22;36.47
55315;BME280;41619;42.816;23.226;2022-09-30T14:57:52;95512.72;;;24.12;36.30
55315;BME280;41619;42.816;23.226;2022-09-30T15:00:30;95509.72;;;24.06;36.41
55315;BME280;41619;42.816;23.226;2022-09-30T15:02:57;95516.34;;;24.00;36.63
55315;BME280;41619;42.816;23.226;2022-09-30T15:05:23;95522.16;;;23.93;37.05
55315;BME280;41619;42.816;23.226;2022-09-30T15:07:49;95519.16;;;23.87;37.66
55315;BME280;41619;42.816;23.226;2022-09-30T15:10:20;95518.59;;;23.79;37.42
55315;BME280;41619;42.816;23.226;2022-09-30T15:12:47;95512.50;;;23.72;37.15
55315;BME280;41619;42.816;23.226;2022-09-30T15:15:34;95511.63;;;23.62;38.26
55315;BME280;41619;42.816;23.226;2022-09-30T15:20:55;95518.97;;;23.43;38.45
55315;BME280;41619;42.816;23.226;2022-09-30T15:23:32;95529.38;;;23.30;39.50
55315;BME280;41619;42.816;23.226;2022-09-30T15:25:59;95539.28;;;23.18;39.69
55315;BME280;41619;42.816;23.226;2022-09-30T15:28:25;95536.38;;;23.09;39.97
55315;BME280;41619;42.816;23.226;2022-09-30T15:30:51;95541.16;;;22.96;41.19
55315;BME280;41619;42.816;23.226;2022-09-30T15:33:20;95549.13;;;22.81;42.27
55315;BME280;41619;42.816;23.226;2022-09-30T15:35:49;95544.84;;;22.64;43.13
55315;BME280;41619;42.816;23.226;2022-09-30T15:38:35;95550.47;;;22.48;44.36
55315;BME280;41619;42.816;23.226;2022-09-30T15:41:07;95551.72;;;22.30;44.86
55315;BME280;41619;42.816;23.226;2022-09-30T15:43:35;95559.78;;;22.12;44.99
55315;BME280;41619;42.816;23.226;2022-09-30T15:46:23;95555.44;;;21.95;45.80
55315;BME280;41619;42.816;23.226;2022-09-30T15:49:03;95556.22;;;21.79;46.42
55315;BME280;41619;42.816;23.226;2022-09-30T15:51:40;95561.00;;;21.62;46.87
55315;BME280;41619;42.816;23.226;2022-09-30T15:54:27;95563.09;;;21.42;47.67
55315;BME280;41619;42.816;23.226;2022-09-30T15:56:57;95567.84;;;21.25;48.01
55315;BME280;41619;42.816;23.226;2022-09-30T15:59:59;95571.75;;;21.08;49.49
55315;BME280;41619;42.816;23.226;2022-09-30T16:02:27;95570.16;;;20.91;49.42
55315;BME280;41619;42.816;23.226;2022-09-30T16:04:53;95580.78;;;20.76;50.08
55315;BME280;41619;42.816;23.226;2022-09-30T16:07:19;95578.69;;;20.60;50.72
55315;BME280;41619;42.816;23.226;2022-09-30T16:09:50;95588.53;;;20.45;51.60